Terminal Aerodrome Forecast
Issued by NWS Knoxville/Tri Cities, TN

Home | Current Version | Previous Version | Text Only | Print | Product List | Glossary On
Versions: 1 2 3 4 5 6 7 8 9 10 11 12 13 14 15 16
000
FTUS44 KMRX 200520
TAFTRI
TAF
KTRI 200520Z 2006/2106 VRB03KT P6SM OVC040
      TEMPO 2007/2011 4SM -RA OVC026
     FM201100 00000KT 4SM -RA BR OVC012
     FM201600 23005KT 5SM BR VCSH SCT015 OVC028
     FM202200 22008KT P6SM SCT030 BKN040
     FM210100 00000KT P6SM BKN040=

USA.gov is the U.S. government's official web portal to all federal, state and local government web resources and services.